Тейково-26

Карта отелей и гостиниц, располагающихся рядом с аэропортом Тейково-26 :

Тейково-26 Ивановская область 56° 45' 25.83" N, 40° 29' 47.04" E
Код аэродрома ИКАО
HH35
Код аэродрома RU
ХХ35
Координаты
N56.75717° E040.49640°
Превышение над уровнем моря
145
Основная полоса
Курс магнитный
Длина основной ВПП
Ширина основной ВПП
Покрытие основной ВПП
Освещение ВПП
Тип: 
Вертодром
Класс аэродрома: 
Принадлежность: 
МО
Статус: 
Недействующий
Сайт: 
E-mail аэродрома: 
Страна: 
Россия
Регион: 
Ивановская область
Город: 
Дополнительная информация: 
Оператор: 54-я Гв. РД РВСН.

Найти трансфер

С помощью этой формы Вы можете найти трансфер из аэропорта Тейково-26 в город, аэропорт или вокзал:

Погода в аэропортах:

Авиационная погода в Абакане

Регион: 
Погода METAR: 
UNAA 221800Z 00000MPS 0050 R02/0300N FZFG FU VV001 M26/M28 Q1034 R02/810149 NOSIG RMK QBB050 QFE753
Время наблюдения
2022-01-22T18:00:00Z
Температура C
-26.0
Точка росы
-28.0
Направление ветра
0
Скорость ветра (узлы)
0
Метео видимость
0.03
Облачность
OVX
Нижняя граница облачности (футы)
0
Явления погоды
FZFG FU
Условия полета
LIFR
Аэропорт подробнее: 
FZFG - переохлаждённый туман; FU – дым (видимость менее 10 км);

Авиационная погода в Казани

Регион: 
Погода METAR: 
UWKD 221800Z 15007MPS 1900 R11/P2000N SN BLSN OVC021 M06/M08 Q1020 R11/451040 NOSIG RMK QFE755/1007
Время наблюдения
2022-01-22T18:00:00Z
Температура C
-6.0
Точка росы
-8.0
Направление ветра
150
Скорость ветра (узлы)
14
Метео видимость
1.18
Облачность
OVC
Нижняя граница облачности (футы)
2100
Явления погоды
SN BLSN
Условия полета
IFR
Аэропорт подробнее: 
OVC – сплошная облачность;
SN – снег, BLSN – метель низовая или общая;

Авиационная погода в Атырау

Регион: 
Погода METAR: 
UATG 221800Z 11005MPS 5000 BR SCT007 M10/M12 Q1024 NOSIG RMK QFE770/1027
Время наблюдения
2022-01-22T18:00:00Z
Температура C
-10.0
Точка росы
-12.0
Направление ветра
110
Скорость ветра (узлы)
10
Метео видимость
3.11
Облачность
SCT
Нижняя граница облачности (футы)
700
Явления погоды
BR
Условия полета
MVFR
SCT – разбросанная отдельная облачность;
BR – дымка (видимость от 1 до 9 км);

Авиационная погода в Ставрополе

Регион: 
Погода METAR: 
URMT 221800Z 05002MPS 0500 R25/1200N FZDZ FZFG OVC003 M03/M03 Q1012 R25/190055 TEMPO 0400 FZDZ FZFG OVC002 RMK QBB090 OBST OBSC QFE721
Время наблюдения
2022-01-22T18:00:00Z
Температура C
-3.0
Точка росы
-3.0
Направление ветра
50
Скорость ветра (узлы)
4
Метео видимость
0.31
Облачность
OVC
Нижняя граница облачности (футы)
300
Явления погоды
FZDZ FZFG
Условия полета
LIFR
Аэропорт подробнее: 
OVC – сплошная облачность;
FZFG - переохлаждённый туман; FZDZ - переохлаждённая морось;